createdAt,value
2023-02-15T00:02:39.745Z,67.57
2023-02-15T00:05:41.872Z,67.68
2023-02-15T00:08:43.971Z,67.64
2023-02-15T00:11:52.077Z,67.80
2023-02-15T00:14:54.244Z,67.62
2023-02-15T00:17:57.237Z,67.77
2023-02-15T00:21:03.448Z,67.74
2023-02-15T00:24:08.063Z,67.61
2023-02-15T00:27:09.945Z,67.64
2023-02-15T00:30:12.438Z,67.73
2023-02-15T00:33:14.342Z,67.82
2023-02-15T00:36:16.218Z,67.84
2023-02-15T00:39:19.005Z,67.76
2023-02-15T00:42:20.982Z,67.60
2023-02-15T00:45:22.861Z,67.93
2023-02-15T00:48:24.970Z,67.61
2023-02-15T00:51:27.236Z,67.93
2023-02-15T00:54:29.146Z,67.79
2023-02-15T00:57:31.891Z,67.76
2023-02-15T01:00:33.974Z,67.67
2023-02-15T01:03:36.578Z,67.68
2023-02-15T01:06:38.548Z,67.61
2023-02-15T01:09:40.435Z,67.78
2023-02-15T01:12:42.564Z,68.00
2023-02-15T01:15:45.236Z,67.69
2023-02-15T01:18:47.574Z,67.71
2023-02-15T01:21:50.465Z,67.69
2023-02-15T01:24:52.471Z,67.70
2023-02-15T01:27:54.316Z,67.66
2023-02-15T01:30:56.261Z,67.60
2023-02-15T01:33:58.146Z,67.45
2023-02-15T01:36:59.949Z,67.73
2023-02-15T01:40:03.338Z,67.37
2023-02-15T01:43:12.506Z,67.60
2023-02-15T01:46:18.134Z,67.57
2023-02-15T01:49:24.196Z,67.65
2023-02-15T01:52:27.005Z,67.26
2023-02-15T01:55:37.354Z,67.18
2023-02-15T01:58:39.318Z,67.53
2023-02-15T02:01:41.251Z,67.48
2023-02-15T02:04:49.490Z,67.59
2023-02-15T02:07:56.902Z,67.43
2023-02-15T02:10:58.775Z,67.37
2023-02-15T02:14:00.696Z,67.40
2023-02-15T02:17:15.594Z,67.45
2023-02-15T02:20:29.248Z,67.30
2023-02-15T02:24:08.373Z,67.55
2023-02-15T02:27:28.275Z,67.28
2023-02-15T02:30:53.921Z,67.33
2023-02-15T02:34:12.958Z,67.51
2023-02-15T02:37:28.578Z,67.49
2023-02-15T02:40:39.131Z,67.44
2023-02-15T02:43:52.029Z,67.42
2023-02-15T02:47:08.161Z,67.50
2023-02-15T02:50:21.850Z,67.40
2023-02-15T02:53:24.030Z,67.37
2023-02-15T02:56:30.824Z,67.26
2023-02-15T02:59:42.864Z,67.58
2023-02-15T03:02:49.241Z,67.60
2023-02-15T03:05:55.858Z,67.56
2023-02-15T03:09:06.731Z,67.66
2023-02-15T03:12:14.214Z,67.80
2023-02-15T03:15:52.013Z,67.72
2023-02-15T03:19:14.152Z,67.53
2023-02-15T03:22:24.283Z,67.69
2023-02-15T03:25:32.933Z,67.77
2023-02-15T03:28:45.885Z,67.80
2023-02-15T03:32:04.489Z,67.59
2023-02-15T03:35:07.611Z,67.62
2023-02-15T03:38:11.277Z,67.74
2023-02-15T03:41:15.499Z,67.51
2023-02-15T03:44:47.557Z,67.61
2023-02-15T03:47:52.814Z,67.88
2023-02-15T03:51:17.918Z,67.64
2023-02-15T03:54:42.544Z,67.68
2023-02-15T03:58:03.890Z,67.71
2023-02-15T04:01:40.764Z,67.58
2023-02-15T04:04:47.640Z,67.93
2023-02-15T04:07:49.574Z,67.46
2023-02-15T04:10:55.440Z,67.82
2023-02-15T04:13:57.461Z,67.93
2023-02-15T04:16:59.376Z,67.97
2023-02-15T04:20:19.681Z,68.03
2023-02-15T04:23:40.069Z,67.84
2023-02-15T04:26:41.962Z,68.08
2023-02-15T04:29:44.072Z,67.79
2023-02-15T04:32:46.123Z,68.14
2023-02-15T04:35:48.016Z,67.98
2023-02-15T04:38:49.910Z,67.90
2023-02-15T04:41:51.824Z,67.99
2023-02-15T04:44:54.059Z,67.71
2023-02-15T04:47:55.956Z,67.88
2023-02-15T04:50:57.884Z,67.83
2023-02-15T04:53:59.870Z,67.66
2023-02-15T04:57:02.230Z,67.81
2023-02-15T05:00:04.834Z,67.82
2023-02-15T05:03:06.824Z,67.98
2023-02-15T05:06:08.748Z,67.96
2023-02-15T05:09:13.953Z,67.70
2023-02-15T05:12:15.944Z,67.88
2023-02-15T05:15:18.220Z,67.87
2023-02-15T05:18:20.901Z,67.96
2023-02-15T05:21:23.210Z,67.81
2023-02-15T05:24:43.877Z,68.17
2023-02-15T05:28:05.332Z,67.88
2023-02-15T05:31:12.453Z,68.08
2023-02-15T05:34:14.814Z,67.93
2023-02-15T05:37:16.746Z,68.25
2023-02-15T05:40:18.754Z,68.22
2023-02-15T05:43:21.365Z,68.09
2023-02-15T05:46:23.446Z,67.95
2023-02-15T05:49:25.957Z,68.41
2023-02-15T05:52:27.860Z,68.24
2023-02-15T05:55:29.753Z,68.12
2023-02-15T05:58:34.524Z,68.37
2023-02-15T06:01:36.428Z,68.33
2023-02-15T06:04:38.240Z,68.37
2023-02-15T06:07:44.163Z,68.29
2023-02-15T06:10:46.885Z,68.27
2023-02-15T06:13:48.750Z,68.17
2023-02-15T06:16:51.690Z,68.64
2023-02-15T06:19:53.550Z,68.36
2023-02-15T06:22:55.389Z,68.63
2023-02-15T06:25:57.817Z,68.37
2023-02-15T06:28:59.649Z,68.40
2023-02-15T06:32:01.750Z,68.78
2023-02-15T06:35:04.157Z,68.57
2023-02-15T06:38:06.610Z,68.57
2023-02-15T06:41:08.370Z,68.71
2023-02-15T06:44:10.208Z,69.01
2023-02-15T06:47:12.151Z,68.94
2023-02-15T06:50:14.226Z,68.78
2023-02-15T06:53:16.050Z,68.87
2023-02-15T06:56:17.914Z,68.70
2023-02-15T06:59:19.676Z,68.88
2023-02-15T07:02:21.703Z,68.97
2023-02-15T07:05:24.369Z,68.82
2023-02-15T07:08:27.554Z,68.87
2023-02-15T07:11:47.893Z,69.00
2023-02-15T07:14:50.298Z,68.98
2023-02-15T07:17:52.234Z,69.04
2023-02-15T07:20:54.128Z,69.01
2023-02-15T07:23:59.157Z,68.86
2023-02-15T07:27:01.371Z,68.95
2023-02-15T07:30:04.899Z,69.11
2023-02-15T07:33:25.087Z,68.94
2023-02-15T07:36:27.014Z,68.81
2023-02-15T07:39:28.877Z,68.88
2023-02-15T07:42:31.178Z,69.16
2023-02-15T07:45:32.911Z,68.94
2023-02-15T07:48:35.825Z,69.31
2023-02-15T07:51:37.881Z,69.15
2023-02-15T07:54:39.799Z,69.10
2023-02-15T07:57:46.357Z,69.30
2023-02-15T08:00:57.079Z,69.09
2023-02-15T08:03:59.720Z,69.08
2023-02-15T08:07:01.655Z,69.08
2023-02-15T08:10:03.797Z,69.29
2023-02-15T08:13:05.684Z,69.16
2023-02-15T08:16:07.572Z,69.31
2023-02-15T08:19:21.365Z,69.60
2023-02-15T08:22:23.261Z,69.50
2023-02-15T08:25:25.120Z,69.49
2023-02-15T08:28:27.078Z,69.41
2023-02-15T08:31:29.344Z,69.29
2023-02-15T08:34:32.190Z,69.50
2023-02-15T08:37:34.097Z,69.34
2023-02-15T08:40:38.362Z,69.37
2023-02-15T08:43:40.975Z,69.49
2023-02-15T08:46:44.792Z,69.61
2023-02-15T08:49:46.925Z,69.51
2023-02-15T08:52:48.841Z,69.79
2023-02-15T08:55:57.812Z,69.43
2023-02-15T08:59:00.115Z,69.43
2023-02-15T09:02:03.303Z,69.32
2023-02-15T09:05:05.555Z,69.17
2023-02-15T09:08:07.590Z,69.43
2023-02-15T09:11:12.177Z,69.28
2023-02-15T09:14:20.634Z,69.46
2023-02-15T09:17:22.522Z,69.24
2023-02-15T09:20:24.602Z,69.13
2023-02-15T09:23:28.103Z,68.98
2023-02-15T09:26:31.593Z,68.70
2023-02-15T09:29:33.414Z,68.93
2023-02-15T09:32:35.221Z,68.78
2023-02-15T09:35:37.063Z,68.62
2023-02-15T09:38:38.902Z,68.19
2023-02-15T09:41:53.929Z,68.24
2023-02-15T09:45:04.531Z,68.13
2023-02-15T09:48:32.920Z,67.76
2023-02-15T09:51:43.345Z,67.79
2023-02-15T09:54:58.320Z,67.62
2023-02-15T09:58:23.443Z,67.59
2023-02-15T10:01:49.613Z,67.61
2023-02-15T10:05:29.452Z,67.55
2023-02-15T10:09:15.835Z,67.20
2023-02-15T10:12:37.633Z,67.15
2023-02-15T10:16:01.871Z,66.84
2023-02-15T10:19:14.725Z,66.86
2023-02-15T10:22:57.755Z,66.79
2023-02-15T10:26:02.686Z,66.48
2023-02-15T10:29:21.400Z,66.35
2023-02-15T10:32:29.629Z,66.33
2023-02-15T10:35:53.731Z,66.15
2023-02-15T10:39:14.051Z,65.81
2023-02-15T10:42:30.952Z,65.74
2023-02-15T10:45:48.452Z,65.57
2023-02-15T10:49:24.075Z,65.48
2023-02-15T10:52:34.698Z,65.36
2023-02-15T10:56:30.136Z,65.28
2023-02-15T10:59:42.959Z,64.94
2023-02-15T11:03:03.237Z,64.69
2023-02-15T11:06:07.701Z,64.52
2023-02-15T11:09:16.488Z,64.17
2023-02-15T11:12:23.172Z,64.00
2023-02-15T11:15:48.205Z,63.56
2023-02-15T11:18:53.645Z,63.39
2023-02-15T11:22:03.304Z,62.89
2023-02-15T11:25:18.120Z,62.84
2023-02-15T11:28:28.162Z,62.63
2023-02-15T11:31:41.601Z,62.40
2023-02-15T11:34:59.087Z,62.03
2023-02-15T11:38:13.320Z,61.87
2023-02-15T11:41:20.453Z,61.43
2023-02-15T11:44:38.326Z,61.36
2023-02-15T11:47:40.701Z,60.90
2023-02-15T11:50:44.764Z,60.96
2023-02-15T11:53:48.366Z,60.60
2023-02-15T11:56:50.779Z,60.16
2023-02-15T12:00:17.326Z,60.08
2023-02-15T12:03:23.677Z,59.57
2023-02-15T12:06:41.695Z,59.43
2023-02-15T12:10:21.796Z,59.53
2023-02-15T12:13:24.010Z,59.08
2023-02-15T12:16:27.421Z,58.68
2023-02-15T12:19:33.628Z,58.72
2023-02-15T12:22:37.856Z,58.56
2023-02-15T12:25:54.547Z,58.31
2023-02-15T12:29:02.422Z,58.06
2023-02-15T12:32:06.970Z,57.73
2023-02-15T12:35:15.043Z,57.52
2023-02-15T12:38:16.864Z,57.58
2023-02-15T12:41:25.809Z,57.43
2023-02-15T12:44:32.249Z,57.10
2023-02-15T12:47:35.232Z,57.17
2023-02-15T12:50:37.288Z,57.03
2023-02-15T12:53:39.712Z,56.80
2023-02-15T12:56:41.741Z,56.58
2023-02-15T12:59:51.857Z,56.32
2023-02-15T13:02:56.409Z,55.94
2023-02-15T13:05:59.236Z,56.07
2023-02-15T13:09:18.189Z,55.78
2023-02-15T13:12:30.919Z,55.14
2023-02-15T13:15:37.328Z,54.95
2023-02-15T13:18:52.522Z,54.65
2023-02-15T13:21:56.887Z,54.72
2023-02-15T13:25:03.935Z,54.70
2023-02-15T13:28:10.803Z,54.73
2023-02-15T13:31:16.798Z,54.58
2023-02-15T13:34:35.371Z,54.41
2023-02-15T13:38:02.503Z,54.45
2023-02-15T13:41:16.225Z,54.74
2023-02-15T13:44:46.199Z,54.75
2023-02-15T13:48:05.698Z,54.58
2023-02-15T13:51:36.099Z,54.33
2023-02-15T13:55:08.928Z,54.29
2023-02-15T13:58:33.780Z,54.42
2023-02-15T14:01:52.161Z,54.34
2023-02-15T14:04:54.275Z,54.35
2023-02-15T14:08:05.512Z,54.17
2023-02-15T14:11:19.454Z,54.04
2023-02-15T14:14:50.391Z,53.98
2023-02-15T14:17:55.470Z,54.12
2023-02-15T14:21:19.697Z,54.14
2023-02-15T14:24:37.707Z,54.31
2023-02-15T14:27:53.377Z,54.31
2023-02-15T14:30:55.703Z,54.40
2023-02-15T14:33:58.574Z,54.23
2023-02-15T14:37:02.195Z,54.26
2023-02-15T14:40:34.604Z,54.25
2023-02-15T14:44:14.273Z,54.23
2023-02-15T14:47:31.098Z,54.24
2023-02-15T14:50:39.815Z,54.27
2023-02-15T14:53:42.624Z,54.22
2023-02-15T14:56:46.307Z,54.33
2023-02-15T14:59:57.700Z,54.45
2023-02-15T15:03:00.680Z,54.36
2023-02-15T15:06:05.942Z,54.35
2023-02-15T15:09:25.978Z,54.41
2023-02-15T15:12:34.036Z,54.46
2023-02-15T15:15:47.042Z,54.60
2023-02-15T15:18:49.617Z,54.52
2023-02-15T15:21:56.522Z,54.50
2023-02-15T15:25:04.465Z,54.74
2023-02-15T15:28:06.564Z,54.78
2023-02-15T15:31:48.778Z,54.93
2023-02-15T15:35:15.466Z,55.07
2023-02-15T15:38:54.902Z,55.11
2023-02-15T15:42:34.494Z,55.19
2023-02-15T15:45:52.942Z,55.30
2023-02-15T15:48:54.995Z,55.33
2023-02-15T15:52:01.394Z,55.60
2023-02-15T15:55:14.198Z,55.78
2023-02-15T15:58:19.612Z,55.69
2023-02-15T16:01:30.361Z,55.69
2023-02-15T16:04:35.241Z,55.74
2023-02-15T16:07:40.532Z,55.89
2023-02-15T16:10:42.525Z,55.95
2023-02-15T16:13:44.890Z,55.99
2023-02-15T16:16:48.692Z,55.91
2023-02-15T16:19:52.364Z,55.91
2023-02-15T16:23:31.091Z,56.04
2023-02-15T16:26:53.452Z,56.32
2023-02-15T16:29:55.509Z,56.29
2023-02-15T16:33:10.063Z,56.45
2023-02-15T16:36:20.237Z,56.53
2023-02-15T16:39:22.366Z,56.76
2023-02-15T16:42:25.186Z,56.88
2023-02-15T16:45:29.325Z,56.97
2023-02-15T16:48:33.719Z,57.04
2023-02-15T16:51:36.536Z,57.01
2023-02-15T16:54:43.113Z,57.14
2023-02-15T16:57:45.791Z,57.35
2023-02-15T17:00:47.967Z,57.21
2023-02-15T17:03:51.924Z,57.22
2023-02-15T17:07:16.930Z,57.21
2023-02-15T17:10:30.576Z,57.25
2023-02-15T17:13:32.428Z,57.27
2023-02-15T17:16:53.096Z,57.25
2023-02-15T17:19:55.943Z,57.36
2023-02-15T17:22:58.310Z,57.20
2023-02-15T17:26:02.066Z,57.41
2023-02-15T17:29:13.461Z,57.20
2023-02-15T17:32:22.366Z,57.36
2023-02-15T17:35:27.699Z,57.54
2023-02-15T17:38:29.667Z,57.48
2023-02-15T17:41:34.605Z,57.56
2023-02-15T17:44:36.474Z,58.11
2023-02-15T17:47:39.923Z,58.03
2023-02-15T17:50:41.846Z,57.64
2023-02-15T17:54:06.316Z,57.69
2023-02-15T17:57:16.140Z,57.82
2023-02-15T18:00:36.924Z,57.84
2023-02-15T18:03:59.890Z,57.78
2023-02-15T18:07:20.490Z,57.95
2023-02-15T18:10:40.717Z,58.04
2023-02-15T18:13:42.670Z,57.86
2023-02-15T18:16:45.567Z,58.14
2023-02-15T18:19:47.860Z,58.48
2023-02-15T18:22:51.022Z,58.34
2023-02-15T18:25:52.835Z,58.61
2023-02-15T18:28:55.499Z,58.63
2023-02-15T18:31:59.319Z,58.74
2023-02-15T18:35:04.000Z,58.58
2023-02-15T18:38:06.148Z,58.52
2023-02-15T18:41:15.688Z,58.63
2023-02-15T18:44:17.604Z,58.88
2023-02-15T18:47:19.393Z,58.91
2023-02-15T18:50:24.072Z,58.80
2023-02-15T18:53:26.014Z,58.82
2023-02-15T18:56:30.083Z,58.96
2023-02-15T18:59:32.027Z,59.07
2023-02-15T19:02:33.876Z,59.05
2023-02-15T19:05:35.921Z,59.08
2023-02-15T19:08:37.843Z,59.17
2023-02-15T19:11:39.804Z,59.27
2023-02-15T19:14:41.742Z,59.42
2023-02-15T19:17:44.197Z,59.38
2023-02-15T19:20:47.204Z,59.54
2023-02-15T19:23:57.169Z,59.72
2023-02-15T19:26:59.281Z,59.78
2023-02-15T19:30:16.040Z,59.59
2023-02-15T19:33:20.310Z,59.83
2023-02-15T19:36:22.470Z,59.83
2023-02-15T19:39:37.046Z,59.72
2023-02-15T19:42:38.930Z,59.81
2023-02-15T19:45:40.780Z,59.92
2023-02-15T19:48:42.710Z,59.92
2023-02-15T19:51:44.938Z,59.82
2023-02-15T19:54:48.570Z,60.13
2023-02-15T19:57:51.670Z,60.09
2023-02-15T20:00:53.520Z,59.92
2023-02-15T20:03:55.397Z,59.92
2023-02-15T20:07:00.890Z,60.07
2023-02-15T20:10:03.308Z,60.41
2023-02-15T20:13:05.315Z,60.31
2023-02-15T20:16:09.083Z,60.42
2023-02-15T20:19:12.401Z,60.23
2023-02-15T20:22:25.824Z,60.42
2023-02-15T20:25:30.320Z,60.33
2023-02-15T20:28:32.379Z,60.28
2023-02-15T20:31:34.433Z,60.33
2023-02-15T20:34:36.439Z,60.61
2023-02-15T20:37:38.550Z,60.56
2023-02-15T20:41:00.785Z,60.72
2023-02-15T20:44:19.457Z,60.71
2023-02-15T20:47:21.311Z,60.68
2023-02-15T20:50:25.894Z,60.57
2023-02-15T20:53:28.402Z,60.70
2023-02-15T20:56:30.934Z,60.56
2023-02-15T20:59:34.533Z,60.70
2023-02-15T21:02:36.480Z,60.62
2023-02-15T21:05:38.681Z,60.74
2023-02-15T21:08:40.917Z,60.91
2023-02-15T21:11:46.908Z,60.63
2023-02-15T21:14:48.885Z,60.77
2023-02-15T21:17:50.861Z,60.95
2023-02-15T21:20:56.861Z,60.75
2023-02-15T21:23:58.723Z,60.87
2023-02-15T21:27:02.968Z,61.03
2023-02-15T21:30:14.344Z,60.81
2023-02-15T21:33:17.018Z,61.09
2023-02-15T21:36:20.064Z,60.89
2023-02-15T21:39:24.425Z,60.70
2023-02-15T21:42:46.139Z,60.68
2023-02-15T21:46:06.552Z,60.88
2023-02-15T21:49:10.084Z,60.69
2023-02-15T21:52:14.052Z,61.01
2023-02-15T21:55:16.253Z,61.14
2023-02-15T21:58:20.408Z,61.08
2023-02-15T22:01:26.018Z,62.27
2023-02-15T22:04:29.581Z,62.24
2023-02-15T22:07:31.421Z,61.64
2023-02-15T22:10:33.312Z,61.71
2023-02-15T22:13:35.405Z,61.39
2023-02-15T22:16:37.306Z,61.33
2023-02-15T22:19:39.228Z,61.18
2023-02-15T22:22:41.019Z,61.13
2023-02-15T22:25:49.450Z,61.38
2023-02-15T22:28:51.575Z,61.20
2023-02-15T22:31:53.624Z,60.99
2023-02-15T22:34:55.614Z,61.22
2023-02-15T22:37:58.304Z,61.25
2023-02-15T22:41:03.456Z,61.40
2023-02-15T22:44:05.628Z,61.27
2023-02-15T22:47:08.073Z,61.26
2023-02-15T22:50:30.950Z,60.97
2023-02-15T22:53:32.802Z,61.49
2023-02-15T22:56:39.362Z,61.35
2023-02-15T22:59:43.926Z,61.55
2023-02-15T23:02:46.509Z,61.58
2023-02-15T23:05:48.729Z,61.51
2023-02-15T23:08:50.574Z,61.42
2023-02-15T23:11:53.331Z,61.63
2023-02-15T23:14:56.626Z,61.53
2023-02-15T23:18:17.587Z,61.47
2023-02-15T23:21:31.061Z,61.60
2023-02-15T23:24:33.907Z,61.34
2023-02-15T23:27:54.211Z,61.48
2023-02-15T23:30:58.463Z,61.59
2023-02-15T23:34:06.682Z,61.47
2023-02-15T23:37:11.799Z,61.48
2023-02-15T23:40:37.701Z,61.58
2023-02-15T23:43:42.171Z,61.53
2023-02-15T23:46:49.187Z,61.44
2023-02-15T23:49:51.133Z,61.64
2023-02-15T23:52:54.503Z,61.73
2023-02-15T23:55:57.597Z,61.68
2023-02-15T23:58:59.836Z,61.90
